Arlon-Sterpenich ULM


Codes: EBAR/QON
Name: Arlon-Sterpenich ULM
City: Arlon
Country: Belgium
Elevation: 1138 ft.
Website:

Photos at Arlon-Sterpenich ULM


   Photos courtesy of SpottingLog. You can add your own sightings and photos by signing up for a free trial today.



No photos found.

Weather at Arlon-Sterpenich ULM


Time (UTC)DescriptionTempratureWindCloud coverageVisibilityPressureHumidity
15-Apr-2024 18:00Moderate Rain7°C20 mph, W95%10000m990hPa82%
15-Apr-2024 21:00Overcast Clouds5°C16 mph, W94%10000m1000hPa85%
16-Apr-2024 00:00Light Rain4°C20 mph, W96%5894m1008hPa93%
16-Apr-2024 03:00Light Rain3°C18 mph, W100%10000m1008hPa87%
16-Apr-2024 06:00Light Rain3°C22 mph, SW100%109m1006hPa97%
16-Apr-2024 09:00Light Rain5°C22 mph, W100%7890m1007hPa96%
16-Apr-2024 12:00Light Rain5°C20 mph, N100%0m1008hPa97%
16-Apr-2024 15:00Light Rain5°C18 mph, NW100%10000m1009hPa92%
16-Apr-2024 18:00Overcast Clouds5°C18 mph, NW100%10000m1011hPa88%
16-Apr-2024 21:00Light Rain3°C16 mph, NW98%602m1012hPa98%
17-Apr-2024 00:00Light Rain3°C11 mph, NW99%2358m1013hPa97%
17-Apr-2024 03:00Light Rain3°C9 mph, NW100%4380m1013hPa96%
17-Apr-2024 06:00Light Snow2°C11 mph, NW100%171m1014hPa98%
17-Apr-2024 09:00Light Rain4°C11 mph, NW100%10000m1014hPa83%
17-Apr-2024 12:00Light Rain7°C9 mph, NW100%4317m1013hPa73%
17-Apr-2024 15:00Light Rain7°C9 mph, NW95%10000m1013hPa71%
17-Apr-2024 18:00Light Rain5°C4 mph, NW97%10000m1013hPa84%
17-Apr-2024 21:00Overcast Clouds2°C4 mph, NE100%10000m1014hPa92%
18-Apr-2024 00:00Overcast Clouds1°C4 mph, N100%10000m1015hPa94%
18-Apr-2024 03:00Overcast Clouds1°C4 mph, N87%10000m1016hPa94%
18-Apr-2024 06:00Broken Clouds2°C4 mph, N78%10000m1018hPa93%
18-Apr-2024 09:00Few Clouds7°C11 mph, N12%10000m1019hPa76%
18-Apr-2024 12:00Light Rain10°C11 mph, N35%10000m1019hPa58%
18-Apr-2024 15:00Light Rain10°C13 mph, N80%10000m1020hPa59%
18-Apr-2024 18:00Broken Clouds6°C7 mph, NW58%10000m1022hPa75%
18-Apr-2024 21:00Clear Sky3°C7 mph, NW9%10000m1024hPa92%
19-Apr-2024 00:00Scattered Clouds2°C4 mph, NW30%10000m1024hPa90%
19-Apr-2024 03:00Overcast Clouds1°C4 mph, W99%10000m1023hPa87%
19-Apr-2024 06:00Overcast Clouds3°C9 mph, W98%10000m1022hPa84%
19-Apr-2024 09:00Overcast Clouds5°C18 mph, W100%10000m1020hPa71%
19-Apr-2024 12:00Light Rain4°C16 mph, W100%3622m1019hPa97%
19-Apr-2024 15:00Light Rain6°C13 mph, W100%4145m1018hPa97%
19-Apr-2024 18:00Light Rain6°C11 mph, NW94%10000m1019hPa90%
19-Apr-2024 21:00Few Clouds3°C11 mph, NW21%10000m1021hPa93%
20-Apr-2024 00:00Scattered Clouds4°C13 mph, NW45%10000m1021hPa83%
20-Apr-2024 03:00Overcast Clouds3°C9 mph, NW99%10000m1023hPa75%
20-Apr-2024 06:00Overcast Clouds4°C7 mph, NW99%10000m1024hPa81%
20-Apr-2024 09:00Overcast Clouds6°C9 mph, NW100%10000m1026hPa64%
20-Apr-2024 12:00Overcast Clouds7°C9 mph, NW100%10000m1026hPa67%
20-Apr-2024 15:00Overcast Clouds8°C9 mph, NW100%10000m1025hPa70%